Time;durP1;ratioP1;P1;durP2;ratioP2;P2;SDS_P1;SDS_P2;PMS_P1;PMS_P2;Temp;Humidity;BMP_temperature;BMP_pressure;BME280_temperature;BME280_humidity;BME280_pressure;Samples;Min_cycle;Max_cycle;Signal;HPM_P1;HPM_P2
2023/12/05 00:02:02;;;;;;;13.30;10.50;;;;;;;16.40;40.36;92431.38;4923590;28;20039;-93
2023/12/05 00:04:27;;;;;;;11.77;9.75;;;;;;;16.40;40.34;92425.19;4945303;28;20069;-92
2023/12/05 00:06:53;;;;;;;12.48;9.27;;;;;;;16.41;40.40;92423.94;4923251;28;20141;-93
2023/12/05 00:09:19;;;;;;;13.50;9.77;;;;;;;16.42;40.35;92428.16;4907705;28;20210;-93
2023/12/05 00:11:44;;;;;;;13.85;9.90;;;;;;;16.39;40.30;92429.91;4875838;28;20057;-91
2023/12/05 00:14:20;;;;;;;12.30;10.07;;;;;;;16.46;39.80;92429.28;4871423;28;20051;-92
2023/12/05 00:16:45;;;;;;;13.07;9.68;;;;;;;16.40;40.23;92431.38;4905656;28;20275;-92
2023/12/05 00:19:11;;;;;;;12.48;8.95;;;;;;;16.50;39.57;92418.06;4905718;28;20598;-93
2023/12/05 00:21:37;;;;;;;14.75;9.18;;;;;;;16.42;40.40;92419.97;4899943;28;20046;-93
2023/12/05 00:24:03;;;;;;;12.50;9.40;;;;;;;16.46;40.32;92417.63;4924111;28;20125;-93
2023/12/05 00:26:28;;;;;;;12.00;9.50;;;;;;;16.48;40.00;92422.56;4932074;28;20038;-93
2023/12/05 00:28:54;;;;;;;12.23;9.13;;;;;;;16.41;40.27;92427.41;4974152;28;20136;-93
2023/12/05 00:31:22;;;;;;;12.43;8.43;;;;;;;16.43;39.94;92427.63;4938743;28;20747;-92
2023/12/05 00:33:47;;;;;;;9.90;7.82;;;;;;;16.51;39.95;92421.53;4923403;28;20770;-93
2023/12/05 00:36:13;;;;;;;12.60;8.55;;;;;;;16.42;40.22;92423.41;4920990;28;21281;-92
2023/12/05 00:38:39;;;;;;;11.32;8.73;;;;;;;16.48;40.25;92414.38;4948379;28;20076;-93
2023/12/05 00:41:07;;;;;;;11.98;8.65;;;;;;;16.45;40.23;92427.81;4980715;28;20374;-93
2023/12/05 00:43:34;;;;;;;14.40;9.23;;;;;;;16.44;40.21;92425.63;4970005;28;20909;-94
2023/12/05 00:45:59;;;;;;;15.15;9.32;;;;;;;16.39;40.33;92432.66;4972785;28;20032;-92
2023/12/05 00:48:25;;;;;;;12.63;8.63;;;;;;;16.42;40.27;92433.59;4986641;28;20096;-93
2023/12/05 00:50:50;;;;;;;9.02;7.43;;;;;;;16.44;40.20;92431.09;4980658;28;20036;-93
2023/12/05 00:53:16;;;;;;;9.95;8.27;;;;;;;16.44;40.25;92426.38;4995572;28;20037;-93
2023/12/05 00:55:42;;;;;;;11.10;8.13;;;;;;;16.49;39.63;92435.69;5026697;28;20029;-93
2023/12/05 00:58:07;;;;;;;10.55;8.27;;;;;;;16.44;40.66;92440.00;5001242;28;20057;-93
2023/12/05 01:00:33;;;;;;;10.90;8.35;;;;;;;16.48;40.43;92444.41;4973587;28;20036;-93
2023/12/05 01:02:58;;;;;;;11.55;8.07;;;;;;;16.52;40.07;92433.91;4975361;28;20339;-93
2023/12/05 01:05:25;;;;;;;10.80;7.72;;;;;;;16.41;40.65;92435.59;4993171;28;20406;-93
2023/12/05 01:07:50;;;;;;;12.73;7.72;;;;;;;16.44;40.82;92433.81;4978356;28;20044;-92
2023/12/05 01:10:16;;;;;;;12.02;8.38;;;;;;;16.43;40.28;92437.81;4970358;28;20125;-92
2023/12/05 01:12:42;;;;;;;9.93;7.50;;;;;;;16.46;39.83;92440.19;4964480;28;20115;-91
2023/12/05 01:15:08;;;;;;;10.40;8.13;;;;;;;16.40;40.33;92436.09;4969883;28;20037;-93
2023/12/05 01:17:33;;;;;;;11.02;8.10;;;;;;;16.36;40.67;92439.13;4949533;28;20037;-93
2023/12/05 01:20:00;;;;;;;10.30;7.70;;;;;;;16.46;40.17;92437.47;4946143;28;20578;-93
2023/12/05 01:22:25;;;;;;;12.73;8.05;;;;;;;16.44;40.07;92437.28;4935983;28;20190;-93
2023/12/05 01:25:00;;;;;;;12.32;7.70;;;;;;;16.50;40.22;92442.63;4942861;28;20080;-93
2023/12/05 01:27:25;;;;;;;9.43;7.55;;;;;;;16.48;40.37;92430.75;4960064;28;20408;-92
2023/12/05 01:29:54;;;;;;;11.48;7.57;;;;;;;16.50;40.17;92434.44;4957256;28;20113;-92
2023/12/05 01:32:19;;;;;;;9.32;7.18;;;;;;;16.46;40.05;92439.47;4953144;28;20056;-93
2023/12/05 01:34:45;;;;;;;10.82;7.72;;;;;;;16.51;40.24;92443.34;4949136;28;20457;-92
2023/12/05 01:37:10;;;;;;;10.70;7.07;;;;;;;16.51;40.00;92448.81;4948749;28;20128;-93
2023/12/05 01:39:36;;;;;;;10.10;6.97;;;;;;;16.45;40.40;92435.28;4946970;28;20613;-93
2023/12/05 01:42:02;;;;;;;7.75;6.35;;;;;;;16.54;39.74;92432.16;4931167;28;20128;-92
2023/12/05 01:44:28;;;;;;;8.85;6.68;;;;;;;16.44;40.54;92440.00;4938884;28;20996;-92
2023/12/05 01:46:55;;;;;;;8.55;6.28;;;;;;;16.44;40.41;92437.28;4920637;28;20726;-92
2023/12/05 01:49:20;;;;;;;9.13;6.53;;;;;;;16.51;39.51;92430.44;4934568;28;20241;-93
2023/12/05 01:51:46;;;;;;;8.93;6.10;;;;;;;16.45;40.05;92432.56;4979975;28;20036;-91
2023/12/05 01:54:12;;;;;;;9.70;7.45;;;;;;;16.39;40.42;92432.66;5003189;28;20187;-93
2023/12/05 01:56:39;;;;;;;9.77;7.05;;;;;;;16.46;40.32;92426.56;4979853;28;20167;-92
2023/12/05 01:59:05;;;;;;;11.18;6.95;;;;;;;16.46;40.23;92423.09;4938554;28;20637;-92
2023/12/05 02:01:33;;;;;;;9.77;6.25;;;;;;;16.55;40.01;92411.06;4954529;28;20095;-93
2023/12/05 02:03:59;;;;;;;8.95;6.65;;;;;;;16.50;40.23;92420.78;4957407;28;20044;-93
2023/12/05 02:06:26;;;;;;;8.35;6.20;;;;;;;16.45;40.33;92414.19;4972986;28;20537;-93
2023/12/05 02:08:52;;;;;;;7.22;5.95;;;;;;;16.42;40.42;92423.41;4960762;28;20552;-92
2023/12/05 02:11:24;;;;;;;8.80;6.75;;;;;;;16.43;40.88;92410.53;4979587;28;20427;-93
2023/12/05 02:13:51;;;;;;;7.57;5.90;;;;;;;16.45;40.57;92416.19;4983099;28;21205;-93
2023/12/05 02:16:29;;;;;;;8.18;6.03;;;;;;;16.40;40.96;92403.38;4946836;28;20120;-92
2023/12/05 02:19:21;;;;;;;7.65;5.95;;;;;;;16.40;40.48;92398.66;4946968;28;20402;-92
2023/12/05 02:21:46;;;;;;;8.45;5.88;;;;;;;16.43;40.44;92408.53;4983933;28;20132;-93
2023/12/05 02:24:30;;;;;;;8.77;6.28;;;;;;;16.45;40.64;92408.00;4981686;28;20037;-93
2023/12/05 02:27:35;;;;;;;8.15;5.93;;;;;;;16.45;40.38;92406.00;5002186;28;20646;-93
2023/12/05 02:30:02;;;;;;;6.25;5.07;;;;;;;16.36;40.37;92400.94;5021343;28;20074;-92
2023/12/05 02:32:29;;;;;;;7.40;5.82;;;;;;;16.33;40.34;92404.72;4985036;28;21054;-93
2023/12/05 02:34:54;;;;;;;7.38;5.85;;;;;;;16.34;40.83;92400.00;4985598;28;20569;-92
2023/12/05 02:37:27;;;;;;;9.73;6.22;;;;;;;16.37;40.64;92404.41;4979548;28;21319;-93
2023/12/05 02:40:00;;;;;;;8.68;6.15;;;;;;;16.45;40.07;92400.53;4981095;28;20118;-93
2023/12/05 02:42:25;;;;;;;7.82;5.47;;;;;;;16.49;40.41;92394.78;4976326;28;20106;-93
2023/12/05 02:44:52;;;;;;;8.20;5.85;;;;;;;16.46;40.93;92402.00;4971355;28;20557;-93
2023/12/05 02:47:19;;;;;;;10.02;6.18;;;;;;;16.48;40.22;92409.66;4965158;28;20096;-93
2023/12/05 02:49:44;;;;;;;7.30;5.32;;;;;;;16.45;40.54;92405.28;4956828;28;20929;-93
2023/12/05 02:52:12;;;;;;;8.70;5.63;;;;;;;16.48;40.16;92400.75;4977387;28;20045;-93
2023/12/05 02:54:37;;;;;;;5.72;4.60;;;;;;;16.51;39.55;92392.25;4991891;28;20370;-93
2023/12/05 02:57:13;;;;;;;6.68;5.05;;;;;;;16.42;40.48;92398.13;4985840;28;20040;-94
2023/12/05 02:59:38;;;;;;;6.30;5.05;;;;;;;16.47;40.02;92402.75;4979728;28;20052;-93
2023/12/05 03:02:04;;;;;;;8.35;6.38;;;;;;;16.41;40.26;92386.50;4998351;28;20119;-93
2023/12/05 03:04:30;;;;;;;7.20;5.30;;;;;;;16.42;40.34;92389.97;4983546;28;20397;-93
2023/12/05 03:06:55;;;;;;;6.65;4.63;;;;;;;16.54;39.43;92398.66;5003118;28;20037;-91
2023/12/05 03:09:22;;;;;;;6.18;4.93;;;;;;;16.41;40.21;92393.94;4999574;28;20065;-93
2023/12/05 03:11:47;;;;;;;6.38;4.65;;;;;;;16.46;39.76;92393.09;4991903;28;20727;-94
2023/12/05 03:14:13;;;;;;;7.15;5.10;;;;;;;16.49;40.29;92394.78;4990464;28;20032;-93
2023/12/05 03:16:39;;;;;;;7.93;4.80;;;;;;;16.53;39.88;92392.47;4956058;28;20174;-93
2023/12/05 03:19:04;;;;;;;7.25;4.90;;;;;;;16.50;40.07;92384.59;5004912;28;20056;-92
2023/12/05 03:21:30;;;;;;;6.03;4.82;;;;;;;16.48;39.86;92378.94;4982280;28;21013;-93
2023/12/05 03:23:55;;;;;;;5.80;4.57;;;;;;;16.44;40.57;92385.44;4984102;28;20048;-93
2023/12/05 03:26:23;;;;;;;7.80;4.95;;;;;;;16.49;39.96;92386.59;4983259;28;20037;-92
2023/12/05 03:28:50;;;;;;;6.50;5.15;;;;;;;16.42;40.30;92387.22;4980333;28;20036;-93
2023/12/05 03:31:21;;;;;;;8.45;5.22;;;;;;;16.42;40.42;92389.97;4992805;28;20029;-94
2023/12/05 03:33:47;;;;;;;8.93;4.57;;;;;;;16.42;40.61;92400.88;4979140;28;20035;-93
2023/12/05 03:36:14;;;;;;;5.75;4.55;;;;;;;16.36;40.44;92397.50;4987937;28;20025;-92
2023/12/05 03:38:39;;;;;;;7.03;4.90;;;;;;;16.43;40.48;92405.81;5004583;28;20703;-93
2023/12/05 03:41:06;;;;;;;5.72;4.65;;;;;;;16.51;39.90;92408.63;4961736;28;20045;-93
2023/12/05 03:43:32;;;;;;;7.15;4.38;;;;;;;16.38;40.64;92420.25;4980980;28;20030;-93
2023/12/05 03:45:58;;;;;;;6.88;4.45;;;;;;;16.43;40.25;92427.63;4965592;28;20101;-93
2023/12/05 03:48:23;;;;;;;5.60;4.35;;;;;;;16.37;40.64;92429.69;4941768;28;20482;-93
2023/12/05 03:50:50;;;;;;;6.00;4.47;;;;;;;16.49;39.81;92429.50;4980661;28;20045;-93
2023/12/05 03:53:15;;;;;;;7.07;4.60;;;;;;;16.52;40.18;92425.72;4989723;28;20182;-93
2023/12/05 03:55:43;;;;;;;5.97;4.10;;;;;;;16.43;40.61;92424.16;4951596;28;20613;-93
2023/12/05 03:58:09;;;;;;;6.70;4.40;;;;;;;16.50;40.24;92422.78;4953516;28;20100;-92
2023/12/05 04:00:34;;;;;;;6.93;4.57;;;;;;;16.40;40.65;92423.22;4956549;28;20038;-93
2023/12/05 04:03:00;;;;;;;5.47;4.25;;;;;;;16.46;40.13;92423.84;4929150;28;20537;-94
2023/12/05 04:05:26;;;;;;;7.72;5.00;;;;;;;16.43;40.24;92430.34;4924339;28;20042;-93
2023/12/05 04:07:53;;;;;;;5.53;4.35;;;;;;;16.50;39.97;92437.16;4948063;28;20198;-93
2023/12/05 04:10:19;;;;;;;5.28;4.07;;;;;;;16.40;40.53;92442.31;4962524;28;20041;-92
2023/12/05 04:12:45;;;;;;;6.97;3.95;;;;;;;16.50;40.30;92442.63;4960412;28;20089;-93
2023/12/05 04:15:10;;;;;;;4.38;3.65;;;;;;;16.42;40.58;92447.25;4938866;28;20037;-92
2023/12/05 04:17:36;;;;;;;4.63;3.85;;;;;;;16.39;40.37;92453.72;4949059;28;20753;-93
2023/12/05 04:20:01;;;;;;;4.63;3.33;;;;;;;16.48;39.89;92460.75;4927330;28;20150;-93
2023/12/05 04:22:28;;;;;;;5.22;4.13;;;;;;;16.37;40.54;92464.41;4961535;28;20049;-92
2023/12/05 04:24:53;;;;;;;5.15;3.60;;;;;;;16.36;40.39;92458.22;4977499;28;20033;-93
2023/12/05 04:27:19;;;;;;;5.75;4.18;;;;;;;16.52;39.56;92463.94;4985389;28;20072;-92
2023/12/05 04:29:45;;;;;;;4.88;3.92;;;;;;;16.41;40.56;92462.88;4980662;28;20074;-92
2023/12/05 04:32:10;;;;;;;4.88;3.88;;;;;;;16.42;40.25;92469.06;4957726;28;20105;-93
2023/12/05 04:34:37;;;;;;;5.43;3.67;;;;;;;16.48;40.42;92471.69;4966158;28;20033;-92
2023/12/05 04:37:02;;;;;;;11.40;7.00;;;;;;;16.45;40.49;92481.66;4970619;28;20577;-93
2023/12/05 04:39:36;;;;;;;37.75;22.38;;;;;;;16.49;40.92;92478.59;4969089;28;20654;-92
2023/12/05 04:42:02;;;;;;;14.40;8.07;;;;;;;16.50;40.35;92486.28;4967213;28;20037;-92
2023/12/05 04:44:30;;;;;;;337.30;136.20;;;;;;;16.48;39.85;92480.59;4957189;28;20960;-92
2023/12/05 04:47:22;;;;;;;420.30;155.45;;;;;;;16.50;40.42;92493.72;4913411;28;20783;-92
2023/12/05 04:49:47;;;;;;;219.32;71.55;;;;;;;16.51;40.76;92489.72;4839374;29;20059;-91
2023/12/05 04:52:15;;;;;;;22.38;9.85;;;;;;;16.42;40.39;92499.06;4833140;29;20045;-90
2023/12/05 04:54:40;;;;;;;53.15;30.00;;;;;;;16.46;39.97;92494.00;4808678;29;20760;-88
2023/12/05 04:57:06;;;;;;;52.42;25.67;;;;;;;16.51;40.29;92498.66;4837981;29;20048;-90
2023/12/05 04:59:43;;;;;;;75.13;40.53;;;;;;;16.49;39.81;92492.25;4847853;29;21796;-90
2023/12/05 05:02:11;;;;;;;82.35;29.70;;;;;;;16.23;35.98;92490.19;4829775;29;20075;-90
2023/12/05 05:04:38;;;;;;;99.60;34.08;;;;;;;16.12;35.92;92482.88;4848502;29;21602;-90
2023/12/05 05:07:04;;;;;;;109.53;39.95;;;;;;;16.10;35.93;92486.13;4835423;29;20055;-89
2023/12/05 05:09:30;;;;;;;79.65;31.50;;;;;;;16.22;36.00;92494.16;4858401;29;20071;-89
2023/12/05 05:11:56;;;;;;;144.95;61.75;;;;;;;16.23;37.27;92490.91;4837676;29;20044;-88
2023/12/05 05:14:21;;;;;;;83.43;41.38;;;;;;;16.32;38.31;92495.25;4837648;29;20048;-87
2023/12/05 05:16:47;;;;;;;109.20;54.05;;;;;;;16.33;38.78;92493.97;4831408;29;20048;-87
2023/12/05 05:19:12;;;;;;;98.32;47.58;;;;;;;16.09;35.74;92486.66;4812288;29;20049;-90
2023/12/05 05:21:41;;;;;;;109.95;58.30;;;;;;;15.99;38.83;92491.75;4838478;29;20125;-92
2023/12/05 05:24:07;;;;;;;96.35;50.53;;;;;;;16.02;37.06;92487.25;4894510;29;20091;-92
2023/12/05 05:26:33;;;;;;;105.78;48.38;;;;;;;16.17;37.04;92486.81;4911295;28;20049;-90
2023/12/05 05:28:59;;;;;;;107.38;50.65;;;;;;;16.22;37.26;92488.72;4925447;28;20050;-92
2023/12/05 05:32:14;;;;;;;113.10;54.70;;;;;;;16.24;38.01;92486.22;4932701;28;20046;-91
2023/12/05 05:34:45;;;;;;;128.32;56.33;;;;;;;16.33;38.12;92488.53;4887021;29;20047;-89
2023/12/05 05:37:49;;;;;;;132.18;61.00;;;;;;;16.36;39.45;92488.22;4882575;29;20058;-96
2023/12/05 05:40:27;;;;;;;133.20;59.10;;;;;;;16.40;38.57;92479.75;4861723;29;20052;-92
2023/12/05 05:42:53;;;;;;;123.53;54.40;;;;;;;16.41;38.54;92492.88;4853544;29;20067;-86
2023/12/05 05:45:18;;;;;;;123.75;56.42;;;;;;;16.39;38.35;92497.38;4835410;29;21617;-82
2023/12/05 05:47:43;;;;;;;99.03;51.40;;;;;;;16.44;38.20;92499.28;4839607;29;22357;-85
2023/12/05 05:50:13;;;;;;;111.20;52.72;;;;;;;16.48;38.07;92498.97;4856557;29;21299;-88
2023/12/05 05:52:38;;;;;;;102.50;48.28;;;;;;;16.36;38.04;92499.13;4845017;29;20736;-87
2023/12/05 05:55:06;;;;;;;103.88;50.40;;;;;;;16.26;38.09;92508.94;4856027;29;20062;-87
2023/12/05 05:57:33;;;;;;;106.35;53.85;;;;;;;16.39;38.20;92500.84;4871212;29;20043;-87
2023/12/05 05:59:59;;;;;;;107.78;51.65;;;;;;;16.37;38.24;92508.78;4852637;29;20039;-87
2023/12/05 06:02:24;;;;;;;123.00;56.40;;;;;;;16.40;38.48;92501.56;4867852;29;20048;-87
2023/12/05 06:04:59;;;;;;;110.03;53.15;;;;;;;16.42;38.20;92513.44;4831805;29;20246;-87
2023/12/05 06:07:24;;;;;;;125.40;52.47;;;;;;;16.43;38.33;92506.00;4803454;29;20235;-87
2023/12/05 06:10:08;;;;;;;117.57;55.78;;;;;;;16.41;38.55;92514.69;4849545;29;20044;-92
2023/12/05 06:12:34;;;;;;;144.98;65.80;;;;;;;16.41;38.22;92514.69;4864600;28;20081;-89
2023/12/05 06:15:06;;;;;;;129.82;56.85;;;;;;;16.45;38.09;92523.28;4936728;28;20085;-86
2023/12/05 06:17:50;;;;;;;139.82;59.70;;;;;;;16.46;38.26;92524.75;4939539;28;20935;-85
2023/12/05 06:20:15;;;;;;;123.07;61.05;;;;;;;16.48;38.43;92526.22;4934879;28;20146;-85
2023/12/05 06:23:03;;;;;;;131.65;67.10;;;;;;;16.46;38.58;92516.56;4965392;28;20085;-92
2023/12/05 06:25:31;;;;;;;142.07;70.63;;;;;;;16.39;38.83;92521.91;4950061;28;20678;-91
2023/12/05 06:28:03;;;;;;;179.05;75.03;;;;;;;16.45;38.55;92528.75;4981568;28;20177;-90
2023/12/05 06:30:28;;;;;;;152.10;75.78;;;;;;;16.54;38.54;92527.63;4970004;28;21116;-87
2023/12/05 06:33:00;;;;;;;162.60;77.13;;;;;;;16.53;38.44;92528.16;4985007;28;20106;-94
2023/12/05 06:35:25;;;;;;;153.40;73.43;;;;;;;16.51;38.23;92528.66;4946337;28;20127;-87
2023/12/05 06:37:53;;;;;;;151.85;77.88;;;;;;;16.57;38.55;92526.59;4984352;28;20025;-87
2023/12/05 06:40:19;;;;;;;201.55;87.85;;;;;;;16.58;38.53;92521.88;5012203;28;20039;-90
2023/12/05 06:42:45;;;;;;;185.05;87.35;;;;;;;16.49;38.98;92536.63;5006007;28;20486;-92
2023/12/05 06:45:13;;;;;;;173.32;86.57;;;;;;;16.58;38.93;92532.78;5006716;28;20033;-90
2023/12/05 06:53:27;;;;;;;184.15;87.80;;;;;;;16.51;38.96;92531.41;5009542;28;20078;-91
2023/12/05 06:55:54;;;;;;;229.20;87.45;;;;;;;16.52;38.90;92535.59;5025963;28;20519;-88
2023/12/05 06:58:22;;;;;;;182.75;93.93;;;;;;;16.53;38.68;92537.06;5025621;28;20105;-92
2023/12/05 07:00:51;;;;;;;195.85;96.88;;;;;;;16.58;38.74;92538.25;5021378;28;20033;-91
2023/12/05 07:03:27;;;;;;;;;;;;;;;;;;;;;
2023/12/05 07:05:56;;;;;;;203.52;106.15;;;;;;;16.61;39.35;92529.03;4954930;28;21412;-91
2023/12/05 07:08:24;;;;;;;173.32;93.22;;;;;;;16.63;39.15;92534.69;4967143;28;20937;-89
2023/12/05 07:11:01;;;;;;;171.95;90.15;;;;;;;16.60;38.85;92536.47;4986615;28;20128;-90
2023/12/05 07:16:34;;;;;;;159.93;90.55;;;;;;;16.60;38.66;92544.66;4934610;28;20061;-91
2023/12/05 07:19:55;;;;;;;169.68;89.97;;;;;;;16.61;39.17;92539.94;4909928;28;20129;-92
2023/12/05 07:22:23;;;;;;;172.88;91.88;;;;;;;16.61;39.18;92543.41;4898063;28;20054;-92
2023/12/05 07:24:48;;;;;;;161.80;85.93;;;;;;;16.60;38.60;92533.00;4883377;28;20041;-92
2023/12/05 07:27:17;;;;;;;160.82;86.78;;;;;;;16.63;39.31;92534.69;4896931;28;20083;-94
2023/12/05 07:29:49;;;;;;;155.80;85.55;;;;;;;16.54;39.19;92541.28;4863909;28;20038;-94
2023/12/05 07:32:24;;;;;;;162.15;86.97;;;;;;;16.57;38.95;92547.69;4883906;28;20047;-92
2023/12/05 07:34:53;;;;;;;163.18;88.00;;;;;;;16.66;38.72;92539.16;4894922;28;20605;-93
2023/12/05 07:37:47;;;;;;;155.23;85.93;;;;;;;16.66;38.91;92541.88;4890115;28;20105;-92
2023/12/05 07:43:35;;;;;;;137.10;77.22;;;;;;;16.67;38.68;92527.69;4879127;29;20768;-89
2023/12/05 07:46:07;;;;;;;180.88;86.93;;;;;;;16.70;39.05;92532.09;4873115;29;20042;-90
2023/12/05 07:48:39;;;;;;;171.68;95.28;;;;;;;16.68;39.08;92529.16;4870405;29;20060;-93
2023/12/05 07:54:15;;;;;;;182.13;95.15;;;;;;;16.73;38.85;92536.53;4892489;29;20150;-91
2023/12/05 07:56:42;;;;;;;196.33;102.93;;;;;;;16.67;38.90;92533.16;4879290;28;20683;-91
2023/12/05 07:59:47;;;;;;;192.98;102.78;;;;;;;16.72;39.10;92528.84;4871491;29;20956;-93
2023/12/05 08:05:48;;;;;;;190.35;94.85;;;;;;;16.75;39.36;92530.56;4814010;29;20061;-95
2023/12/05 08:08:56;;;;;;;220.38;103.50;;;;;;;16.68;39.50;92544.78;4798558;29;20095;-91
2023/12/05 08:11:21;;;;;;;179.68;97.55;;;;;;;16.66;39.21;92542.63;4805931;29;20593;-87
2023/12/05 08:14:12;;;;;;;210.80;99.28;;;;;;;16.73;39.43;92541.25;4798922;29;20037;-95
2023/12/05 08:16:39;;;;;;;207.35;103.95;;;;;;;16.76;39.46;92538.22;4809543;29;20228;-89
2023/12/05 08:19:11;;;;;;;195.68;99.50;;;;;;;16.73;39.30;92542.00;4841010;29;20136;-92
2023/12/05 08:21:37;;;;;;;188.40;103.22;;;;;;;16.72;39.85;92542.50;4832814;29;20172;-87
2023/12/05 08:24:03;;;;;;;200.80;107.20;;;;;;;16.70;39.81;92536.81;4813512;29;20122;-86
2023/12/05 08:26:31;;;;;;;202.68;103.80;;;;;;;16.71;39.11;92541.03;4822399;29;20535;-89
2023/12/05 08:29:01;;;;;;;204.13;101.95;;;;;;;16.68;39.60;92536.63;4859790;29;21065;-89
2023/12/05 08:31:26;;;;;;;196.88;103.32;;;;;;;16.79;39.35;92541.91;4850597;29;20055;-85
2023/12/05 08:33:52;;;;;;;201.65;107.00;;;;;;;16.74;39.31;92546.19;4863542;29;20050;-90
2023/12/05 08:36:18;;;;;;;217.70;112.20;;;;;;;16.76;39.78;92542.94;4835845;29;20043;-92
2023/12/05 08:38:43;;;;;;;209.63;106.95;;;;;;;16.86;39.18;92548.75;4895092;29;20039;-92
2023/12/05 08:41:09;;;;;;;220.35;112.75;;;;;;;16.73;39.39;92552.91;4896379;28;20031;-89
2023/12/05 08:43:34;;;;;;;208.65;109.32;;;;;;;16.71;39.80;92555.41;4988345;28;20067;-91
2023/12/05 08:46:02;;;;;;;188.00;99.55;;;;;;;16.75;39.53;92555.13;5015633;28;20116;-90
2023/12/05 08:48:28;;;;;;;214.55;104.57;;;;;;;16.71;39.68;92560.88;4981537;28;20057;-90
2023/12/05 08:50:53;;;;;;;198.45;108.88;;;;;;;16.74;39.46;92553.63;4989554;28;20060;-91
2023/12/05 08:53:20;;;;;;;206.02;106.68;;;;;;;16.76;39.74;92554.59;4970625;28;20042;-90
2023/12/05 08:55:46;;;;;;;202.73;99.03;;;;;;;16.78;39.16;92552.09;4963860;28;20041;-93
2023/12/05 08:59:02;;;;;;;;;;;;;;;;;;;;;
2023/12/05 09:01:37;;;;;;;192.98;97.13;;;;;;;16.76;39.45;92562.03;4971025;28;20924;-92
2023/12/05 09:04:03;;;;;;;232.13;110.07;;;;;;;16.70;39.65;92561.38;4935296;28;20137;-93
2023/12/05 09:06:31;;;;;;;195.60;98.72;;;;;;;16.79;39.01;92569.94;4950754;28;20069;-92
2023/12/05 09:09:07;;;;;;;189.43;102.88;;;;;;;16.78;39.77;92570.44;4967902;28;20042;-94
2023/12/05 09:11:35;;;;;;;216.10;108.20;;;;;;;16.85;39.71;92563.66;4964392;28;20046;-93
2023/12/05 09:14:00;;;;;;;249.65;119.50;;;;;;;16.87;39.63;92572.06;4942894;28;20046;-90
2023/12/05 09:17:03;;;;;;;231.70;106.78;;;;;;;16.81;39.89;92568.69;4942303;28;20050;-92
2023/12/05 09:19:37;;;;;;;229.00;108.00;;;;;;;16.72;39.63;92570.53;4902600;28;20106;-93
2023/12/05 09:22:10;;;;;;;212.70;104.28;;;;;;;16.76;39.62;92573.69;4902046;28;20868;-91
2023/12/05 09:24:36;;;;;;;207.98;106.65;;;;;;;16.82;39.54;92570.88;4891797;29;20043;-89
2023/12/05 09:27:02;;;;;;;197.05;103.32;;;;;;;16.82;39.86;92572.88;4876694;28;20050;-91
2023/12/05 09:29:47;;;;;;;;;;;;;;;;;;;;;
2023/12/05 09:32:12;;;;;;;205.48;103.45;;;;;;;16.78;39.80;92568.47;4896876;28;20274;-88
2023/12/05 09:34:38;;;;;;;189.65;104.88;;;;;;;16.85;39.63;92574.56;4901685;28;20089;-90
2023/12/05 09:37:10;;;;;;;222.80;116.38;;;;;;;16.87;39.70;92572.06;4862780;28;20044;-93
2023/12/05 09:39:36;;;;;;;218.23;108.85;;;;;;;16.94;39.34;92574.91;4876692;28;20042;-92
2023/12/05 09:42:03;;;;;;;230.60;115.70;;;;;;;16.90;39.58;92573.72;4911081;28;21326;-93
2023/12/05 09:44:31;;;;;;;205.48;104.07;;;;;;;16.93;39.62;92569.97;4939211;28;20057;-93
2023/12/05 09:47:06;;;;;;;195.55;106.25;;;;;;;16.91;39.57;92564.28;4950128;28;20089;-91
2023/12/05 09:53:10;;;;;;;222.38;115.80;;;;;;;16.85;39.97;92569.13;4904832;28;20039;-92
2023/12/05 09:55:58;;;;;;;252.52;130.48;;;;;;;16.81;40.00;92555.78;4897597;29;20110;-92
2023/12/05 09:58:54;;;;;;;265.83;141.82;;;;;;;16.87;39.83;92555.69;4912514;28;20062;-93
2023/12/05 10:01:56;;;;;;;251.88;137.45;;;;;;;16.90;39.49;92558.09;4890186;28;20485;-94
2023/12/05 10:04:57;;;;;;;291.92;164.55;;;;;;;16.90;39.88;92552.63;4897620;29;20036;-93
2023/12/05 10:07:44;;;;;;;285.27;161.95;;;;;;;16.87;39.73;92555.69;4836663;29;20045;-88
2023/12/05 10:10:45;;;;;;;274.10;157.32;;;;;;;16.89;39.94;92553.88;4823903;29;20100;-91
2023/12/05 10:13:14;;;;;;;321.63;174.88;;;;;;;16.87;39.99;92542.03;4789935;29;20145;-91
2023/12/05 10:15:52;;;;;;;292.40;160.32;;;;;;;16.85;40.20;92550.75;4781625;29;20178;-91
2023/12/05 10:18:23;;;;;;;309.02;177.77;;;;;;;16.93;39.90;92543.41;4797367;29;20058;-89
2023/12/05 10:20:51;;;;;;;306.63;175.73;;;;;;;16.93;39.72;92540.66;4779374;29;20122;-91
2023/12/05 10:23:27;;;;;;;299.48;175.27;;;;;;;16.92;40.12;92536.47;4789595;29;20049;-90
2023/12/05 10:30:02;;;;;;;269.95;161.80;;;;;;;16.93;39.54;92542.66;4794116;29;20058;-90
2023/12/05 10:32:43;;;;;;;;;;;;;;;;;;;;;
2023/12/05 10:36:00;;;;;;;314.63;185.60;;;;;;;16.98;40.06;92539.84;4805167;29;21491;-91
2023/12/05 10:38:27;;;;;;;302.00;181.65;;;;;;;17.00;39.99;92540.06;4811515;29;20875;-91
2023/12/05 10:40:54;;;;;;;294.58;179.00;;;;;;;17.01;39.91;92527.88;4799788;29;20137;-89
2023/12/05 10:43:26;;;;;;;270.48;152.80;;;;;;;17.07;39.36;92535.97;4814382;29;20082;-89
2023/12/05 10:45:53;;;;;;;301.98;182.45;;;;;;;17.08;39.33;92534.72;4797021;29;20152;-90
2023/12/05 10:48:28;;;;;;;305.48;186.45;;;;;;;17.06;39.80;92531.78;4806457;29;20116;-90
2023/12/05 10:50:57;;;;;;;283.88;172.32;;;;;;;17.06;40.13;92518.13;4895938;28;20047;-90
2023/12/05 10:53:28;;;;;;;289.63;176.45;;;;;;;17.04;39.82;92526.09;4917445;28;20261;-91
2023/12/05 10:56:06;;;;;;;284.80;173.90;;;;;;;17.03;40.16;92530.81;4889203;28;21029;-90
2023/12/05 10:59:04;;;;;;;286.38;171.75;;;;;;;16.97;39.80;92513.81;4893281;28;20054;-92
2023/12/05 11:01:44;;;;;;;301.15;166.43;;;;;;;17.04;40.01;92523.38;4894498;28;20047;-90
2023/12/05 11:04:41;;;;;;;288.40;167.93;;;;;;;17.09;39.87;92517.09;4912401;28;20092;-92
2023/12/05 11:07:10;;;;;;;288.45;168.55;;;;;;;17.03;39.99;92522.63;4982044;28;20037;-92
2023/12/05 11:09:41;;;;;;;265.73;161.55;;;;;;;17.01;40.03;92518.94;4970669;28;20128;-92
2023/12/05 11:12:21;;;;;;;275.85;169.75;;;;;;;16.98;39.92;92526.19;4971323;28;20286;-92
2023/12/05 11:15:18;;;;;;;264.83;155.53;;;;;;;17.05;39.83;92522.13;4939255;28;20038;-92
2023/12/05 11:18:13;;;;;;;265.92;154.68;;;;;;;17.06;40.20;92510.66;4943596;28;20292;-92
2023/12/05 11:21:32;;;;;;;231.23;138.60;;;;;;;17.07;39.94;92523.06;4855544;29;20064;-92
2023/12/05 11:24:38;;;;;;;225.93;135.43;;;;;;;16.98;40.29;92531.66;4858177;29;20684;-92
2023/12/05 11:27:48;;;;;;;210.48;128.50;;;;;;;17.07;40.42;92527.78;4824821;29;21343;-94
2023/12/05 11:30:39;;;;;;;216.40;133.27;;;;;;;17.05;40.13;92541.97;4787392;29;20136;-91
2023/12/05 11:33:37;;;;;;;204.27;124.45;;;;;;;17.09;40.28;92530.75;4780807;29;20171;-93
2023/12/05 11:36:24;;;;;;;199.27;125.32;;;;;;;17.11;39.79;92534.38;4786693;29;20073;-92
2023/12/05 11:38:49;;;;;;;197.10;119.88;;;;;;;17.14;40.03;92535.34;4768578;29;20180;-92
2023/12/05 11:41:21;;;;;;;194.77;122.03;;;;;;;17.08;40.27;92527.28;4759424;29;20062;-89
2023/12/05 11:44:11;;;;;;;186.75;113.78;;;;;;;17.10;40.08;92537.66;4792842;29;20049;-88
2023/12/05 11:46:37;;;;;;;153.95;99.47;;;;;;;17.10;40.23;92532.91;4808807;29;20120;-89
2023/12/05 11:49:03;;;;;;;227.93;114.15;;;;;;;17.08;40.50;92538.19;4781242;29;20117;-90
2023/12/05 11:51:31;;;;;;;161.30;98.10;;;;;;;17.06;40.28;92535.25;4820267;29;20411;-89
2023/12/05 11:53:59;;;;;;;164.98;99.38;;;;;;;17.15;40.02;92542.28;4801910;29;20071;-93
2023/12/05 11:56:28;;;;;;;174.18;106.25;;;;;;;17.16;40.29;92538.28;4823586;29;20095;-92
2023/12/05 11:59:14;;;;;;;208.35;118.13;;;;;;;17.07;40.06;92541.44;4840643;29;20130;-90
2023/12/05 12:01:43;;;;;;;202.77;110.95;;;;;;;17.17;39.95;92547.97;4889358;28;20108;-90
2023/12/05 12:04:19;;;;;;;206.98;121.45;;;;;;;17.17;39.98;92549.94;4941250;28;20040;-90
2023/12/05 12:06:45;;;;;;;262.02;154.95;;;;;;;17.20;40.18;92543.44;4972587;28;20036;-90
2023/12/05 12:09:11;;;;;;;296.80;180.50;;;;;;;17.12;40.35;92544.06;4969468;28;20283;-89